Time;durP1;ratioP1;P1;durP2;ratioP2;P2;SDS_P1;SDS_P2;PMS_P1;PMS_P2;Temp;Humidity;BMP_temperature;BMP_pressure;BME280_temperature;BME280_humidity;BME280_pressure;Samples;Min_cycle;Max_cycle;Signal;HPM_P1;HPM_P2
2023/05/06 00:00:28;;;;;;;9.33;4.20;;;3.70;99.90;2.70;101374;;;;572020;246;24062;-75
2023/05/06 00:02:52;;;;;;;7.30;3.70;;;3.30;99.90;2.80;101372;;;;572000;246;24150;-80
2023/05/06 00:05:21;;;;;;;6.53;3.83;;;3.70;99.90;2.80;101373;;;;572052;246;24070;-74
2023/05/06 00:07:50;;;;;;;9.43;4.07;;;;;2.80;101368;;;;573251;246;24148;-73
2023/05/06 00:10:20;;;;;;;9.25;5.00;;;3.90;99.90;2.90;101369;;;;568408;246;35125;-77
2023/05/06 00:12:48;;;;;;;10.80;3.67;;;3.90;99.90;2.90;101365;;;;573183;246;24045;-76
2023/05/06 00:15:15;;;;;;;8.23;3.50;;;4.10;99.90;2.90;101358;;;;578253;246;24136;-79
2023/05/06 00:17:44;;;;;;;6.03;3.50;;;3.80;99.90;2.90;101362;;;;572751;246;24095;-78
2023/05/06 00:20:13;;;;;;;12.90;4.70;;;3.80;99.90;2.90;101371;;;;573016;246;24094;-77
2023/05/06 00:22:41;;;;;;;9.40;4.95;;;3.90;99.90;2.90;101372;;;;567966;246;35171;-74
2023/05/06 00:25:09;;;;;;;15.77;3.97;;;3.90;99.90;2.90;101374;;;;572446;246;24097;-75
2023/05/06 00:27:40;;;;;;;13.70;4.17;;;3.90;99.90;2.80;101373;;;;581099;246;24067;-77
2023/05/06 00:30:06;;;;;;;8.20;4.30;;;3.80;99.90;2.80;101377;;;;580861;246;24071;-75
2023/05/06 00:32:34;;;;;;;8.50;4.30;;;4.10;99.90;2.80;101371;;;;572408;246;24044;-77
2023/05/06 00:35:07;;;;;;;7.80;3.90;;;3.80;99.90;2.80;101387;;;;581127;246;24056;-77
2023/05/06 00:37:31;;;;;;;6.50;4.07;;;3.70;99.90;2.80;101375;;;;572560;246;24069;-76
2023/05/06 00:40:00;;;;;;;8.23;3.90;;;3.80;99.90;2.80;101368;;;;573064;246;24070;-75
2023/05/06 00:42:29;;;;;;;14.87;5.70;;;3.70;99.90;2.70;101371;;;;573255;246;24043;-78
2023/05/06 00:44:57;;;;;;;11.40;4.33;;;3.70;99.90;2.60;101377;;;;581040;246;24017;-77
2023/05/06 00:47:26;;;;;;;18.40;6.13;;;3.60;99.90;2.60;101376;;;;572392;246;24044;-79
2023/05/06 00:49:54;;;;;;;11.77;3.90;;;3.70;99.90;2.50;101367;;;;572422;246;24086;-78
2023/05/06 00:52:21;;;;;;;11.10;5.00;;;3.30;99.90;2.50;101379;;;;572320;246;24081;-78
2023/05/06 00:54:50;;;;;;;10.47;4.47;;;3.40;99.90;2.40;101367;;;;572421;246;24328;-78
2023/05/06 00:57:18;;;;;;;10.97;4.77;;;3.10;99.90;2.40;101360;;;;571995;244;24041;-79
2023/05/06 00:59:46;;;;;;;8.97;4.40;;;3.60;99.90;2.30;101368;;;;572416;246;24045;-79
2023/05/06 01:02:15;;;;;;;6.43;3.87;;;3.40;99.90;2.30;101370;;;;572415;246;24072;-79
2023/05/06 01:04:42;;;;;;;5.10;3.03;;;3.30;99.90;2.30;101381;;;;572459;246;24085;-78
2023/05/06 01:07:40;;;;;;;11.17;4.73;;;3.50;99.90;2.30;101371;;;;572370;246;24077;-74
2023/05/06 01:10:19;;;;;;;5.60;3.87;;;3.30;99.90;2.40;101375;;;;572429;246;24047;-79
2023/05/06 01:13:19;;;;;;;7.43;4.10;;;3.10;99.90;2.30;101378;;;;580793;246;24110;-79
2023/05/06 01:15:50;;;;;;;6.87;3.60;;;3.50;99.90;2.30;101395;;;;574250;250;24080;-79
2023/05/06 01:18:17;;;;;;;7.60;4.23;;;3.10;99.90;2.30;101386;;;;583511;241;24050;-77
2023/05/06 01:20:45;;;;;;;9.30;4.47;;;3.20;99.90;2.30;101389;;;;594470;241;24131;-80
2023/05/06 01:23:14;;;;;;;5.95;4.05;;;3.30;99.90;2.30;101396;;;;589018;241;34977;-74
2023/05/06 01:25:43;;;;;;;5.27;3.07;;;3.30;99.90;2.30;101390;;;;594475;240;24075;-75
2023/05/06 01:28:15;;;;;;;5.93;3.50;;;3.10;99.90;2.40;101388;;;;593767;241;24026;-76
2023/05/06 01:30:51;;;;;;;6.75;4.22;;;3.40;99.90;2.40;101397;;;;579106;240;35011;-78
2023/05/06 01:33:29;;;;;;;3.73;2.97;;;3.00;99.90;2.30;101392;;;;582773;241;24040;-73
2023/05/06 01:36:13;;;;;;;6.77;3.87;;;3.30;99.90;2.30;101392;;;;583893;241;24035;-73
2023/05/06 01:38:59;;;;;;;7.30;3.60;;;3.20;99.90;2.30;101396;;;;593587;241;24056;-74
2023/05/06 01:41:27;;;;;;;11.13;4.63;;;3.30;99.90;2.20;101399;;;;581883;241;24039;-72
2023/05/06 01:43:55;;;;;;;5.40;3.83;;;3.10;99.90;2.20;101397;;;;581561;241;24026;-74
2023/05/06 01:46:23;;;;;;;8.00;3.90;;;3.30;99.90;2.20;101401;;;;593331;239;24184;-74
2023/05/06 01:48:52;;;;;;;6.13;4.23;;;3.10;99.90;2.10;101385;;;;593204;241;24047;-72
2023/05/06 01:51:19;;;;;;;6.78;4.45;;;3.20;99.90;2.10;101390;;;;588175;241;35015;-72
2023/05/06 01:53:48;;;;;;;7.43;3.37;;;3.30;99.90;2.10;101384;;;;593090;241;24148;-74
2023/05/06 01:56:16;;;;;;;5.80;3.33;;;3.10;99.90;2.10;101379;;;;593038;241;24079;-72
2023/05/06 01:58:44;;;;;;;8.60;4.17;;;3.50;99.90;2.10;101380;;;;583732;241;24110;-78
2023/05/06 02:01:12;;;;;;;8.83;4.30;;;2.80;99.90;2.10;101382;;;;593325;240;24075;-76
2023/05/06 02:03:40;;;;;;;7.93;3.77;;;2.80;99.90;2.10;101379;;;;593277;241;24126;-78
2023/05/06 02:06:08;;;;;;;7.23;3.90;;;3.10;99.90;2.10;101387;;;;593288;241;24109;-75
2023/05/06 02:08:37;;;;;;;7.27;3.67;;;3.00;99.90;2.00;101390;;;;593339;240;24116;-77
2023/05/06 02:11:05;;;;;;;11.13;5.10;;;3.00;99.90;2.00;101389;;;;583499;241;24054;-76
2023/05/06 02:13:34;;;;;;;9.60;4.83;;;2.90;99.90;1.90;101379;;;;593520;240;24060;-72
2023/05/06 02:16:02;;;;;;;7.07;4.17;;;2.90;99.90;1.90;101390;;;;593478;241;24047;-78
2023/05/06 02:18:29;;;;;;;7.97;3.87;;;3.20;99.90;1.80;101386;;;;593505;241;24097;-78
2023/05/06 02:20:58;;;;;;;5.60;3.73;;;2.80;99.90;1.80;101384;;;;593550;241;24027;-78
2023/05/06 02:23:26;;;;;;;5.77;3.93;;;2.60;99.90;1.80;101382;;;;593506;241;24046;-78
2023/05/06 02:25:56;;;;;;;8.82;5.57;;;2.70;99.90;1.90;101386;;;;589377;241;34987;-81
2023/05/06 02:28:22;;;;;;;7.50;4.07;;;2.80;99.90;1.90;101384;;;;593039;241;24051;-79
2023/05/06 02:30:50;;;;;;;8.20;4.50;;;2.70;99.90;1.90;101383;;;;594692;240;24311;-73
2023/05/06 02:33:19;;;;;;;7.53;4.50;;;2.90;99.90;1.90;101380;;;;593889;241;24032;-73
2023/05/06 02:35:47;;;;;;;8.33;5.03;;;2.80;99.90;1.90;101383;;;;593858;241;24053;-74
2023/05/06 02:38:15;;;;;;;7.53;4.23;;;2.80;99.90;1.90;101380;;;;593975;241;24035;-74
2023/05/06 02:40:47;;;;;;;10.57;4.83;;;3.20;99.90;2.00;101385;;;;593504;241;24075;-73
2023/05/06 02:43:12;;;;;;;6.50;4.75;;;3.10;99.90;2.00;101382;;;;577541;241;34979;-74
2023/05/06 02:45:40;;;;;;;7.77;3.60;;;2.70;99.90;2.00;101381;;;;594024;241;24033;-73
2023/05/06 02:48:08;;;;;;;15.57;5.00;;;3.00;99.90;2.10;101381;;;;593966;241;24110;-73
2023/05/06 02:50:37;;;;;;;10.27;5.00;;;3.50;99.90;2.20;101382;;;;593761;241;24029;-72
2023/05/06 02:53:04;;;;;;;10.27;4.53;;;3.00;99.90;2.20;101384;;;;593234;241;24047;-74
2023/05/06 02:55:33;;;;;;;12.97;5.83;;;3.20;99.90;2.30;101382;;;;593826;239;24111;-74
2023/05/06 02:58:05;;;;;;;12.23;5.67;;;2.90;99.90;2.40;101380;;;;593584;239;24110;-74
2023/05/06 03:00:29;;;;;;;10.37;4.47;;;3.40;99.90;2.40;101370;;;;590161;241;24028;-75
2023/05/06 03:02:57;;;;;;;17.63;5.30;;;3.10;99.90;2.40;101375;;;;593904;239;24018;-76
2023/05/06 03:05:25;;;;;;;14.10;5.53;;;3.40;99.90;2.40;101374;;;;584299;241;24464;-75
2023/05/06 03:07:54;;;;;;;10.17;4.30;;;3.40;99.90;2.50;101383;;;;593632;241;24060;-77
2023/05/06 03:10:21;;;;;;;9.73;4.93;;;4.00;99.90;2.50;101387;;;;581799;241;24064;-77
2023/05/06 03:12:49;;;;;;;5.90;3.50;;;3.50;99.90;2.50;101390;;;;593836;241;24080;-76
2023/05/06 03:15:17;;;;;;;9.77;4.40;;;3.60;99.90;2.50;101384;;;;593406;241;24083;-77
2023/05/06 03:17:49;;;;;;;4.70;3.20;;;3.60;99.90;2.50;101391;;;;583786;241;24071;-74
2023/05/06 03:20:14;;;;;;;9.10;4.17;;;3.50;99.90;2.50;101392;;;;592804;241;24149;-73
2023/05/06 03:22:42;;;;;;;15.10;4.93;;;3.30;99.90;2.50;101391;;;;593099;241;25067;-74
2023/05/06 03:25:09;;;;;;;9.80;3.67;;;4.60;99.90;2.50;101382;;;;593250;241;24044;-74
2023/05/06 03:27:37;;;;;;;12.57;4.53;;;4.20;99.90;2.50;101384;;;;593087;241;24124;-74
2023/05/06 03:30:09;;;;;;;8.80;3.57;;;3.40;99.90;2.60;101380;;;;593113;241;25101;-75
2023/05/06 03:32:35;;;;;;;8.52;4.68;;;3.40;99.90;2.70;101390;;;;579073;241;35035;-75
2023/05/06 03:35:06;;;;;;;5.90;4.10;;;3.80;99.90;2.80;101387;;;;588631;241;35000;-80
2023/05/06 03:37:31;;;;;;;5.73;2.80;;;3.80;99.90;2.90;101392;;;;583176;241;24061;-76
2023/05/06 03:40:02;;;;;;;8.63;2.57;;;3.90;99.90;3.00;101392;;;;593512;241;24143;-74
2023/05/06 03:42:32;;;;;;;7.27;3.27;;;3.90;99.90;3.00;101379;;;;594798;240;24103;-78
2023/05/06 03:44:57;;;;;;;7.80;3.42;;;4.10;99.90;3.10;101370;;;;579852;241;35021;-74
2023/05/06 03:47:25;;;;;;;8.37;2.73;;;4.10;99.90;3.20;101376;;;;595351;239;24119;-76
2023/05/06 03:49:53;;;;;;;14.50;4.20;;;4.00;99.90;3.30;101384;;;;594976;239;24085;-75
2023/05/06 03:52:21;;;;;;;9.63;3.33;;;3.90;99.90;3.40;101382;;;;585158;241;24064;-77
2023/05/06 03:54:49;;;;;;;6.40;2.13;;;4.50;99.90;3.50;101387;;;;593881;241;24026;-76
2023/05/06 03:57:17;;;;;;;14.23;4.23;;;4.70;99.90;3.60;101391;;;;593149;239;24075;-75
2023/05/06 03:59:45;;;;;;;14.17;4.00;;;4.60;99.90;3.70;101398;;;;593712;241;24080;-75
2023/05/06 04:02:17;;;;;;;14.07;4.33;;;4.70;99.90;3.80;101394;;;;593326;241;24098;-78
2023/05/06 04:04:42;;;;;;;7.57;3.00;;;4.80;99.90;4.00;101395;;;;583806;241;24057;-74
2023/05/06 04:07:10;;;;;;;10.98;3.92;;;5.10;99.90;4.10;101385;;;;588653;241;34936;-74
2023/05/06 04:09:39;;;;;;;13.07;4.27;;;5.30;99.90;4.30;101388;;;;594037;241;24141;-77
2023/05/06 04:12:07;;;;;;;8.67;3.20;;;5.40;99.90;4.40;101388;;;;594154;241;24043;-75
2023/05/06 04:14:35;;;;;;;9.83;2.70;;;5.50;99.90;4.60;101400;;;;586634;241;24043;-74
2023/05/06 04:17:04;;;;;;;5.93;2.37;;;5.10;99.90;4.80;101398;;;;593499;241;24098;-78
2023/05/06 04:19:32;;;;;;;8.23;3.10;;;5.90;99.90;4.90;101399;;;;593346;240;24141;-79
2023/05/06 04:21:59;;;;;;;4.83;2.27;;;6.00;99.90;4.90;101391;;;;593286;241;24072;-76
2023/05/06 04:24:30;;;;;;;4.30;1.83;;;5.90;99.90;5.00;101382;;;;592759;241;24052;-76
2023/05/06 04:26:56;;;;;;;10.20;2.83;;;5.90;99.90;5.00;101383;;;;593001;241;24107;-78
2023/05/06 04:29:25;;;;;;;7.43;2.33;;;5.90;99.90;5.00;101390;;;;593190;241;24057;-76
2023/05/06 04:31:53;;;;;;;3.83;1.83;;;5.80;99.90;5.00;101385;;;;593511;240;24050;-78
2023/05/06 04:34:21;;;;;;;4.00;1.90;;;5.80;99.90;5.20;101395;;;;593526;240;24024;-77
2023/05/06 04:36:49;;;;;;;4.27;1.87;;;6.10;99.90;5.30;101396;;;;593469;241;24028;-77
2023/05/06 04:39:17;;;;;;;5.83;2.60;;;6.20;99.90;5.30;101395;;;;593540;241;24135;-79
2023/05/06 04:41:45;;;;;;;4.97;1.80;;;6.30;99.90;5.40;101401;;;;593593;241;24024;-79
2023/05/06 04:44:13;;;;;;;4.80;1.70;;;6.10;99.90;5.40;101383;;;;593549;241;24036;-77
2023/05/06 04:46:42;;;;;;;16.33;2.63;;;6.20;99.90;5.40;101396;;;;593299;241;24098;-79
2023/05/06 04:49:10;;;;;;;6.43;1.90;;;6.10;99.90;5.30;101393;;;;593171;241;24051;-75
2023/05/06 04:51:38;;;;;;;4.80;2.00;;;6.40;99.90;5.50;101397;;;;593031;241;24035;-75
2023/05/06 04:54:06;;;;;;;7.73;2.20;;;6.30;99.90;5.50;101399;;;;594478;240;24039;-77
2023/05/06 04:56:34;;;;;;;2.90;1.57;;;6.30;99.90;5.60;101395;;;;594282;240;24057;-78
2023/05/06 04:59:02;;;;;;;4.00;2.00;;;6.60;99.90;5.80;101395;;;;593949;241;24032;-74
2023/05/06 05:01:30;;;;;;;4.00;1.97;;;6.60;99.90;5.90;101400;;;;593957;240;24017;-74
2023/05/06 05:03:58;;;;;;;4.80;2.03;;;6.70;99.90;6.00;101397;;;;593622;241;24060;-75
2023/05/06 05:06:26;;;;;;;6.40;2.60;;;6.60;99.90;6.00;101391;;;;594011;241;24024;-78
2023/05/06 05:08:54;;;;;;;7.27;2.57;;;6.80;99.90;6.00;101387;;;;594046;241;24024;-78
2023/05/06 05:11:22;;;;;;;8.60;2.23;;;6.60;99.90;6.00;101393;;;;593922;241;24076;-75
2023/05/06 05:13:49;;;;;;;4.83;1.83;;;6.20;99.90;6.10;101388;;;;593792;241;24030;-77
2023/05/06 05:16:18;;;;;;;4.23;1.53;;;7.00;99.90;6.10;101388;;;;593807;239;24082;-80
2023/05/06 05:18:46;;;;;;;5.93;1.93;;;8.00;99.90;6.10;101384;;;;593504;241;24033;-78
2023/05/06 05:21:14;;;;;;;5.70;2.00;;;7.10;99.90;6.10;101381;;;;593388;241;24059;-78
2023/05/06 05:23:43;;;;;;;7.23;2.43;;;6.90;99.90;6.10;101378;;;;583612;241;24094;-75
2023/05/06 05:26:12;;;;;;;4.93;2.23;;;7.00;99.90;6.20;101385;;;;583822;241;24076;-79
2023/05/06 05:28:40;;;;;;;3.70;1.63;;;7.10;99.90;6.20;101382;;;;581533;241;24252;-77
2023/05/06 05:31:08;;;;;;;3.83;1.33;;;7.20;99.90;6.30;101383;;;;593173;241;24083;-74
2023/05/06 05:33:36;;;;;;;2.93;1.37;;;7.10;99.90;6.40;101378;;;;592864;241;24061;-74
2023/05/06 05:36:04;;;;;;;7.40;2.50;;;7.20;99.90;6.60;101384;;;;593168;241;24043;-74
2023/05/06 05:38:32;;;;;;;4.67;1.77;;;7.60;99.90;6.90;101385;;;;583301;241;24105;-75
2023/05/06 05:41:00;;;;;;;5.60;2.07;;;7.80;99.90;7.20;101384;;;;593229;241;24042;-74
2023/05/06 05:43:30;;;;;;;8.23;3.00;;;8.40;99.90;7.60;101379;;;;587896;241;45854;-73
2023/05/06 05:45:56;;;;;;;3.83;2.03;;;8.60;99.90;8.00;101380;;;;593203;241;24052;-73
2023/05/06 05:48:24;;;;;;;6.57;2.70;;;9.30;99.90;8.30;101382;;;;593533;241;24028;-72
2023/05/06 05:50:52;;;;;;;5.20;1.80;;;9.40;99.90;8.60;101381;;;;593581;241;24074;-73
2023/05/06 05:53:20;;;;;;;5.37;2.47;;;9.60;99.90;8.90;101388;;;;593452;241;24025;-73
2023/05/06 05:55:48;;;;;;;11.40;3.77;;;9.70;99.90;9.20;101374;;;;593458;240;24052;-73
2023/05/06 05:58:16;;;;;;;4.97;1.93;;;10.30;96.60;9.60;101392;;;;593295;241;24102;-76
2023/05/06 06:00:44;;;;;;;4.43;1.80;;;10.60;96.40;10.10;101385;;;;593157;241;24083;-74
2023/05/06 06:03:12;;;;;;;5.90;2.20;;;10.40;94.20;10.20;101383;;;;593497;241;24068;-73
2023/05/06 06:05:40;;;;;;;2.70;1.93;;;11.10;90.70;10.30;101383;;;;589155;240;35149;-75
2023/05/06 06:08:08;;;;;;;4.50;2.30;;;11.30;90.80;10.60;101396;;;;584664;241;24066;-74
2023/05/06 06:10:36;;;;;;;4.12;2.17;;;11.80;90.40;10.70;101375;;;;579287;241;34952;-73
2023/05/06 06:13:04;;;;;;;4.40;2.17;;;11.90;90.20;11.10;101376;;;;593993;241;24086;-73
2023/05/06 06:15:33;;;;;;;5.27;1.80;;;12.10;83.20;11.40;101383;;;;593805;241;24032;-74
2023/05/06 06:18:02;;;;;;;7.37;2.70;;;12.40;82.50;11.70;101387;;;;593697;239;24012;-75
2023/05/06 06:20:30;;;;;;;5.30;2.57;;;13.00;86.70;12.10;101390;;;;594128;241;24090;-74
2023/05/06 06:22:57;;;;;;;3.83;2.27;;;13.00;84.00;12.50;101391;;;;593851;241;24028;-74
2023/05/06 06:25:29;;;;;;;8.93;2.77;;;13.80;82.90;13.00;101395;;;;593825;241;24024;-73
2023/05/06 06:27:54;;;;;;;6.20;2.47;;;13.90;78.80;13.30;101386;;;;593755;241;24061;-73
2023/05/06 06:30:23;;;;;;;5.47;2.13;;;14.40;79.20;13.70;101398;;;;592966;241;24031;-77
2023/05/06 06:32:57;;;;;;;3.23;1.83;;;14.90;76.10;14.30;101389;;;;584434;241;24035;-73
2023/05/06 06:35:20;;;;;;;10.17;1.97;;;15.30;79.00;14.60;101400;;;;581402;241;24055;-75
2023/05/06 06:37:48;;;;;;;4.73;1.80;;;15.70;75.70;15.10;101400;;;;593606;240;24141;-74
2023/05/06 06:40:16;;;;;;;3.97;1.67;;;16.00;72.90;15.30;101389;;;;593748;241;24060;-72
2023/05/06 06:42:44;;;;;;;8.40;3.03;;;15.60;72.90;15.80;101395;;;;593123;241;24049;-73
2023/05/06 06:45:12;;;;;;;7.70;2.37;;;16.60;68.20;15.90;101404;;;;593672;241;24055;-72
2023/05/06 06:47:41;;;;;;;3.03;2.03;;;16.70;67.40;15.80;101394;;;;584175;241;24083;-74
2023/05/06 06:50:13;;;;;;;6.70;2.67;;;16.80;64.40;15.90;101396;;;;593721;240;23071;-73
2023/05/06 06:52:37;;;;;;;7.10;2.63;;;17.00;67.30;15.90;101391;;;;593290;241;24113;-74
2023/05/06 06:55:08;;;;;;;5.07;2.10;;;16.50;68.70;15.50;101403;;;;593962;241;24110;-75
2023/05/06 06:57:33;;;;;;;6.57;2.90;;;16.20;69.80;15.20;101395;;;;593049;240;24104;-77
2023/05/06 07:00:01;;;;;;;5.27;2.00;;;16.10;69.70;14.90;101392;;;;593477;241;24083;-72
2023/05/06 07:02:30;;;;;;;2.60;1.47;;;15.60;65.70;14.60;101386;;;;593421;240;24091;-77
2023/05/06 07:04:57;;;;;;;6.13;2.33;;;15.10;71.40;14.20;101393;;;;592991;241;24088;-78
2023/05/06 07:07:25;;;;;;;4.33;2.00;;;15.00;72.10;13.90;101384;;;;593331;241;24036;-74
2023/05/06 07:09:53;;;;;;;9.93;2.03;;;14.70;72.60;13.60;101374;;;;593277;241;24089;-75
2023/05/06 07:12:23;;;;;;;6.70;2.10;;;15.40;74.40;13.40;101378;;;;593039;241;24092;-76
2023/05/06 07:14:49;;;;;;;5.68;2.33;;;14.40;69.60;13.50;101388;;;;587972;241;45937;-74
2023/05/06 07:17:20;;;;;;;8.47;2.73;;;14.50;67.60;13.50;101375;;;;594373;240;24048;-76
2023/05/06 07:19:45;;;;;;;6.27;1.73;;;14.70;70.00;13.70;101386;;;;594544;239;24094;-78
2023/05/06 07:22:13;;;;;;;5.13;2.33;;;14.60;72.80;13.90;101378;;;;594627;241;24036;-74
2023/05/06 07:24:42;;;;;;;3.53;1.60;;;14.70;68.80;14.00;101380;;;;594638;241;25105;-76
2023/05/06 07:27:09;;;;;;;8.27;3.17;;;14.60;70.90;14.10;101379;;;;584602;241;24159;-77
2023/05/06 07:29:37;;;;;;;3.70;1.90;;;14.80;71.30;14.20;101367;;;;593691;241;24052;-73
2023/05/06 07:32:06;;;;;;;2.30;1.50;;;15.30;67.10;14.40;101375;;;;594294;240;24051;-74
2023/05/06 07:34:35;;;;;;;9.30;3.27;;;;;14.60;101374;;;;584523;241;24067;-77
2023/05/06 07:37:07;;;;;;;3.40;2.00;;;15.50;64.20;14.70;101375;;;;578635;241;35066;-76
2023/05/06 07:39:31;;;;;;;21.33;5.47;;;15.70;68.10;14.90;101364;;;;593266;241;24100;-75
2023/05/06 07:42:00;;;;;;;4.03;1.73;;;15.80;67.70;14.80;101376;;;;593543;241;24088;-75
2023/05/06 07:44:28;;;;;;;8.03;2.33;;;15.70;63.00;14.80;101375;;;;593616;241;24096;-74
2023/05/06 07:46:57;;;;;;;3.83;2.27;;;15.70;63.40;15.00;101385;;;;593436;241;24119;-74
2023/05/06 07:49:27;;;;;;;6.83;1.97;;;15.50;68.10;14.80;101381;;;;593783;241;24042;-75
2023/05/06 07:51:53;;;;;;;6.67;2.40;;;15.70;69.10;15.00;101384;;;;593719;241;24060;-76
2023/05/06 07:54:21;;;;;;;9.00;3.17;;;15.90;63.70;15.20;101388;;;;593508;241;24156;-73
2023/05/06 07:56:49;;;;;;;7.53;2.50;;;15.10;66.80;15.20;101388;;;;593561;241;24024;-73
2023/05/06 07:59:17;;;;;;;2.93;1.97;;;16.20;63.50;15.40;101388;;;;593082;240;24058;-73
2023/05/06 08:01:46;;;;;;;4.50;2.43;;;16.10;63.10;15.20;101384;;;;593268;241;24024;-73
2023/05/06 08:04:15;;;;;;;5.17;1.93;;;16.20;61.80;15.30;101383;;;;593113;241;24100;-73
2023/05/06 08:06:42;;;;;;;3.63;2.00;;;15.90;64.70;15.00;101383;;;;583748;241;24032;-75
2023/05/06 08:09:11;;;;;;;7.77;2.20;;;15.50;68.10;15.20;101397;;;;593086;241;24057;-74
2023/05/06 08:11:38;;;;;;;5.50;2.50;;;16.30;67.00;15.50;101395;;;;593716;241;24117;-72
2023/05/06 08:14:06;;;;;;;3.70;2.73;;;16.40;66.80;15.70;101404;;;;593728;241;24063;-73
2023/05/06 08:16:34;;;;;;;4.13;2.77;;;16.60;67.70;15.70;101388;;;;593134;241;24102;-74
2023/05/06 08:19:03;;;;;;;4.10;1.93;;;16.60;60.90;15.60;101383;;;;583488;241;24082;-74
2023/05/06 08:21:31;;;;;;;8.07;2.50;;;16.40;60.90;15.50;101384;;;;593618;241;24051;-74
2023/05/06 08:24:00;;;;;;;3.07;1.57;;;16.40;61.60;15.50;101382;;;;593594;241;24080;-74
2023/05/06 08:26:28;;;;;;;9.47;2.43;;;16.30;63.00;15.50;101382;;;;593616;241;24016;-74
2023/05/06 08:28:58;;;;;;;4.53;2.23;;;15.80;68.50;15.10;101382;;;;595430;240;24083;-74
2023/05/06 08:31:24;;;;;;;5.77;2.53;;;16.00;69.80;14.90;101380;;;;595175;241;24038;-74
2023/05/06 08:33:53;;;;;;;5.77;2.73;;;15.40;65.10;14.60;101384;;;;591607;241;24036;-74
2023/05/06 08:36:22;;;;;;;2.53;1.60;;;15.50;65.80;14.60;101370;;;;594342;241;24042;-74
2023/05/06 08:38:50;;;;;;;3.20;2.00;;;15.40;64.40;14.40;101386;;;;593812;241;24032;-74
2023/05/06 08:41:18;;;;;;;3.20;2.00;;;15.20;69.10;14.30;101376;;;;593581;241;24028;-73
2023/05/06 08:43:47;;;;;;;4.53;2.17;;;15.20;64.70;14.40;101373;;;;593184;241;24036;-74
2023/05/06 08:46:15;;;;;;;3.27;2.03;;;15.30;64.30;14.50;101379;;;;583880;241;24024;-77
2023/05/06 08:48:47;;;;;;;6.43;1.80;;;15.40;65.30;14.50;101375;;;;592979;241;24017;-74
2023/05/06 08:51:15;;;;;;;3.47;1.73;;;16.30;71.50;14.20;101375;;;;593069;241;24074;-79
2023/05/06 08:53:42;;;;;;;4.70;2.33;;;14.90;71.50;14.10;101379;;;;584218;241;24065;-80
2023/05/06 08:56:15;;;;;;;4.13;1.93;;;15.00;65.80;14.10;101377;;;;593419;241;24025;-78
2023/05/06 08:58:39;;;;;;;5.40;2.37;;;14.80;66.70;13.90;101379;;;;592569;239;24094;-79
2023/05/06 09:01:08;;;;;;;4.70;2.27;;;14.80;67.00;13.70;101381;;;;593495;241;24022;-80
2023/05/06 09:03:36;;;;;;;7.90;1.80;;;14.20;72.60;13.40;101367;;;;593320;241;24141;-79
2023/05/06 09:06:04;;;;;;;3.47;2.27;;;14.00;70.40;13.10;101370;;;;593524;241;24069;-77
2023/05/06 09:08:31;;;;;;;4.93;1.60;;;13.60;75.30;12.90;101369;;;;592699;241;24021;-80
2023/05/06 09:10:59;;;;;;;3.43;1.77;;;13.60;76.20;12.80;101350;;;;593042;241;24087;-72
2023/05/06 09:13:29;;;;;;;5.23;2.03;;;13.60;70.40;12.70;101368;;;;593174;241;24167;-72
2023/05/06 09:15:56;;;;;;;4.27;1.77;;;13.50;77.00;12.60;101374;;;;593023;241;24111;-78
2023/05/06 09:18:24;;;;;;;6.00;2.00;;;13.20;77.80;12.40;101374;;;;593237;241;24023;-80
2023/05/06 09:20:52;;;;;;;7.17;2.43;;;13.10;76.80;12.20;101380;;;;593560;241;24069;-78
2023/05/06 09:23:20;;;;;;;4.37;1.97;;;13.10;79.20;12.10;101367;;;;593598;241;24080;-79
2023/05/06 09:25:49;;;;;;;11.37;1.90;;;12.80;73.00;11.90;101362;;;;593049;241;24059;-80
2023/05/06 09:28:17;;;;;;;5.63;1.90;;;12.60;74.10;11.70;101370;;;;593073;241;24093;-76
2023/05/06 09:30:46;;;;;;;2.90;1.60;;;12.60;74.50;11.70;101368;;;;593550;241;24024;-79
2023/05/06 09:33:14;;;;;;;5.50;2.10;;;12.40;72.60;11.50;101369;;;;593062;241;24045;-78
2023/05/06 09:35:42;;;;;;;16.17;2.80;;;12.50;80.00;11.20;101357;;;;593586;240;24052;-75
2023/05/06 09:38:11;;;;;;;4.33;2.20;;;12.10;74.90;11.20;101369;;;;593086;241;24083;-76
2023/05/06 09:40:39;;;;;;;3.47;1.13;;;12.00;74.90;11.10;101349;;;;594708;240;24143;-80
2023/05/06 09:43:09;;;;;;;4.37;2.10;;;11.90;74.70;10.90;101348;;;;594290;241;24039;-79
2023/05/06 09:45:37;;;;;;;12.50;2.57;;;11.60;75.70;10.70;101352;;;;584192;241;24068;-82
2023/05/06 09:48:05;;;;;;;5.17;2.07;;;11.70;82.20;10.70;101362;;;;594008;241;24045;-77
2023/05/06 09:50:33;;;;;;;6.30;2.37;;;11.20;78.50;10.60;101358;;;;594037;241;24013;-78
2023/05/06 09:53:02;;;;;;;2.47;1.50;;;11.40;83.90;10.70;101336;;;;584589;241;24055;-80
2023/05/06 09:55:29;;;;;;;5.93;2.40;;;11.50;77.30;10.70;101346;;;;593951;241;24033;-78
2023/05/06 09:57:57;;;;;;;4.13;2.30;;;11.70;84.20;10.90;101346;;;;583975;241;24025;-79
2023/05/06 10:00:27;;;;;;;5.03;2.37;;;12.10;83.60;11.20;101352;;;;583777;241;24033;-75
2023/05/06 10:02:53;;;;;;;3.27;2.07;;;12.10;79.60;11.20;101351;;;;592340;241;24022;-75
2023/05/06 10:05:22;;;;;;;6.63;1.83;;;12.00;75.30;11.30;101347;;;;583857;241;24036;-77
2023/05/06 10:07:50;;;;;;;4.70;2.03;;;12.30;83.30;11.30;101343;;;;583737;241;24045;-75
2023/05/06 10:10:21;;;;;;;6.83;1.60;;;12.10;75.60;11.30;101337;;;;593482;241;24046;-77
2023/05/06 10:12:46;;;;;;;5.90;2.53;;;12.00;80.40;11.30;101342;;;;593055;241;24045;-75
2023/05/06 10:15:14;;;;;;;4.17;2.13;;;12.10;82.00;11.30;101343;;;;593041;241;24068;-75
2023/05/06 10:17:46;;;;;;;7.70;2.47;;;12.10;74.30;11.30;101339;;;;593144;241;24032;-73
2023/05/06 10:20:11;;;;;;;6.10;3.10;;;12.00;82.30;11.20;101326;;;;583410;241;24028;-74
2023/05/06 10:23:02;;;;;;;3.83;2.20;;;12.00;79.70;11.20;101334;;;;588396;240;34950;-76
2023/05/06 10:25:43;;;;;;;6.90;2.63;;;12.00;80.00;11.20;101334;;;;579129;241;35933;-72
2023/05/06 10:28:10;;;;;;;4.53;2.62;;;12.30;80.30;11.20;101321;;;;576875;241;34926;-74
2023/05/06 10:30:38;;;;;;;1.17;1.10;;;12.10;79.60;11.10;101317;;;;581876;240;24021;-73
2023/05/06 10:33:06;;;;;;;8.43;3.07;;;11.90;74.70;11.10;101313;;;;583171;241;24057;-75
2023/05/06 10:35:43;;;;;;;4.87;2.60;;;11.80;78.00;11.00;101317;;;;593107;241;24136;-75
2023/05/06 10:38:30;;;;;;;7.03;2.93;;;12.20;82.60;11.10;101318;;;;584201;241;24094;-77
2023/05/06 10:40:58;;;;;;;8.10;2.40;;;11.90;82.20;11.20;101309;;;;593048;241;24046;-77
2023/05/06 10:43:31;;;;;;;4.50;1.87;;;12.00;82.80;11.10;101317;;;;593383;241;24118;-78
2023/05/06 10:46:07;;;;;;;5.60;2.80;;;11.80;75.80;10.90;101313;;;;589978;241;24056;-77
2023/05/06 10:48:34;;;;;;;3.03;1.70;;;11.40;82.90;10.90;101307;;;;583792;241;24027;-79
2023/05/06 10:51:21;;;;;;;4.47;1.50;;;11.60;75.80;10.90;101317;;;;593774;240;24064;-76
2023/05/06 10:53:58;;;;;;;3.77;1.83;;;11.60;76.50;10.80;101295;;;;594979;239;24106;-75
2023/05/06 10:56:26;;;;;;;4.47;1.80;;;11.60;85.00;10.90;101303;;;;594022;241;24020;-78
2023/05/06 10:58:54;;;;;;;2.73;2.17;;;11.80;84.50;11.00;101292;;;;593305;241;24053;-77
2023/05/06 11:01:22;;;;;;;5.00;2.47;;;11.90;77.20;11.20;101293;;;;584335;241;24035;-75
2023/05/06 11:03:51;;;;;;;2.47;1.40;;;11.90;77.00;11.20;101301;;;;593364;241;24050;-75
2023/05/06 11:06:37;;;;;;;3.37;2.10;;;11.30;82.60;11.20;101296;;;;593834;241;24065;-75
2023/05/06 11:09:05;;;;;;;5.67;2.23;;;11.90;76.60;11.10;101291;;;;584177;241;24053;-74
2023/05/06 11:12:03;;;;;;;3.53;2.13;;;11.80;83.80;11.20;101296;;;;593221;241;24036;-72
2023/05/06 11:14:37;;;;;;;2.57;1.93;;;11.60;82.50;11.20;101300;;;;592564;240;24037;-73
2023/05/06 11:17:05;;;;;;;3.27;2.00;;;11.90;77.00;11.20;101304;;;;584030;241;24071;-74
2023/05/06 11:19:33;;;;;;;5.03;2.07;;;12.30;82.30;11.30;101294;;;;593144;241;24062;-75
2023/05/06 11:22:04;;;;;;;7.03;1.93;;;11.90;76.20;11.20;101293;;;;593415;241;24107;-73
2023/05/06 11:24:32;;;;;;;3.57;1.53;;;11.70;82.20;11.20;101306;;;;593763;239;24044;-73